createdAt,value
2023-03-17T00:00:23.462Z,6
2023-03-17T00:02:56.958Z,5.9
2023-03-17T00:05:27.371Z,5.9
2023-03-17T00:08:00.509Z,5.9
2023-03-17T00:10:32.849Z,6
2023-03-17T00:13:04.145Z,6
2023-03-17T00:15:34.355Z,6
2023-03-17T00:18:04.799Z,5.9
2023-03-17T00:20:36.614Z,6
2023-03-17T00:23:06.879Z,5.9
2023-03-17T00:25:37.290Z,5.9
2023-03-17T00:28:07.694Z,6
2023-03-17T00:30:38.012Z,5.7
2023-03-17T00:33:10.648Z,5.7
2023-03-17T00:35:41.692Z,5.5
2023-03-17T00:38:12.169Z,5.6
2023-03-17T00:43:15.605Z,5.6
2023-03-17T00:45:45.768Z,5.6
2023-03-17T00:48:15.829Z,5.6
2023-03-17T00:50:46.542Z,5.6
2023-03-17T00:53:16.477Z,5.6
2023-03-17T00:55:47.885Z,5.6
2023-03-17T00:58:18.362Z,5.5
2023-03-17T01:00:50.549Z,5.3
2023-03-17T01:03:20.825Z,5.4
2023-03-17T01:05:51.259Z,5.3
2023-03-17T01:08:24.991Z,5.2
2023-03-17T01:10:55.928Z,5.3
2023-03-17T01:13:26.131Z,5.2
2023-03-17T01:15:57.648Z,5
2023-03-17T01:18:29.743Z,5.2
2023-03-17T01:21:00.327Z,5
2023-03-17T01:23:33.294Z,5
2023-03-17T01:26:03.602Z,4.9
2023-03-17T01:28:34.618Z,4.9
2023-03-17T01:31:05.198Z,4.9
2023-03-17T01:33:36.152Z,4.8
2023-03-17T01:36:06.803Z,4.7
2023-03-17T01:38:38.204Z,4.6
2023-03-17T01:41:08.590Z,4.6
2023-03-17T01:43:39.083Z,4.4
2023-03-17T01:46:09.959Z,4.2
2023-03-17T01:48:41.228Z,4.3
2023-03-17T01:51:11.781Z,4.3
2023-03-17T01:53:41.206Z,4.2
2023-03-17T01:56:12.380Z,4.2
2023-03-17T01:58:44.111Z,4.3
2023-03-17T02:01:13.546Z,4.2
2023-03-17T02:03:44.466Z,4.2
2023-03-17T02:06:16.438Z,4.3
2023-03-17T02:08:47.286Z,4.4
2023-03-17T02:11:18.122Z,4.4
2023-03-17T02:13:49.263Z,4.5
2023-03-17T02:16:19.912Z,4.7
2023-03-17T02:18:53.737Z,4.6
2023-03-17T02:21:25.632Z,4.7
2023-03-17T02:23:57.888Z,4.6
2023-03-17T02:26:28.806Z,4.5
2023-03-17T02:29:00.145Z,4.5
2023-03-17T02:31:31.042Z,4.5
2023-03-17T02:34:00.981Z,4.4
2023-03-17T02:36:33.018Z,4.6
2023-03-17T02:39:03.747Z,4.6
2023-03-17T02:41:34.701Z,4.5
2023-03-17T02:44:05.436Z,4.6
2023-03-17T02:46:36.042Z,4.7
2023-03-17T02:49:11.249Z,4.6
2023-03-17T02:51:43.595Z,4.4
2023-03-17T02:54:13.478Z,4.5
2023-03-17T02:56:44.187Z,4.4
2023-03-17T02:59:14.674Z,4.5
2023-03-17T03:01:45.441Z,4.4
2023-03-17T03:04:15.946Z,4.6
2023-03-17T03:06:46.491Z,4.5
2023-03-17T03:09:18.384Z,4.4
2023-03-17T03:11:49.008Z,4.3
2023-03-17T03:14:19.563Z,4.3
2023-03-17T03:16:50.413Z,4.2
2023-03-17T03:19:23.044Z,4.2
2023-03-17T03:21:53.990Z,4.3
2023-03-17T03:24:26.551Z,4.3
2023-03-17T03:27:02.550Z,4.3
2023-03-17T03:29:34.358Z,4.3
2023-03-17T03:32:04.951Z,4.1
2023-03-17T03:34:34.161Z,4.1
2023-03-17T03:37:04.385Z,4.1
2023-03-17T03:39:36.737Z,4
2023-03-17T03:42:14.540Z,4
2023-03-17T03:44:45.792Z,3.9
2023-03-17T03:47:15.890Z,4
2023-03-17T03:49:46.984Z,3.9
2023-03-17T03:52:17.586Z,3.9
2023-03-17T03:54:46.378Z,3.9
2023-03-17T03:57:16.993Z,3.8
2023-03-17T03:59:47.954Z,3.5
2023-03-17T04:02:21.530Z,3.6
2023-03-17T04:04:52.706Z,3.6
2023-03-17T04:07:22.788Z,3.6
2023-03-17T04:09:53.528Z,3.8
2023-03-17T04:12:28.065Z,3.8
2023-03-17T04:14:58.839Z,3.9
2023-03-17T04:17:29.534Z,3.8
2023-03-17T04:20:00.039Z,3.8
2023-03-17T04:22:32.740Z,3.9
2023-03-17T04:25:03.754Z,3.8
2023-03-17T04:27:33.758Z,3.8
2023-03-17T04:30:04.464Z,3.7
2023-03-17T04:32:34.894Z,3.6
2023-03-17T04:35:05.067Z,3.7
2023-03-17T04:37:37.189Z,3.6
2023-03-17T04:40:08.290Z,3.6
2023-03-17T04:42:38.450Z,3.6
2023-03-17T04:45:09.131Z,3.5
2023-03-17T04:47:39.761Z,3.5
2023-03-17T04:50:10.596Z,3.6
2023-03-17T04:52:41.835Z,3.5
2023-03-17T04:55:12.653Z,3.6
2023-03-17T04:57:43.925Z,3.5
2023-03-17T05:00:15.903Z,3.5
2023-03-17T05:02:47.480Z,3.6
2023-03-17T05:05:18.059Z,3.6
2023-03-17T05:07:50.442Z,3.7
2023-03-17T05:10:21.079Z,3.9
2023-03-17T05:12:52.880Z,3.9
2023-03-17T05:15:23.050Z,3.9
2023-03-17T05:17:53.756Z,4
2023-03-17T05:20:24.782Z,4
2023-03-17T05:22:55.169Z,4
2023-03-17T05:25:23.987Z,4.1
2023-03-17T05:27:54.193Z,4.1
2023-03-17T05:30:24.586Z,4.2
2023-03-17T05:32:56.679Z,4.3
2023-03-17T05:35:36.724Z,4
2023-03-17T05:38:08.080Z,4
2023-03-17T05:40:41.362Z,4.2
2023-03-17T05:43:12.473Z,4.4
2023-03-17T05:45:42.982Z,4.5
2023-03-17T05:48:14.189Z,4.5
2023-03-17T05:50:46.465Z,4.7
2023-03-17T05:53:16.957Z,4.8
2023-03-17T05:55:47.592Z,4.8
2023-03-17T05:58:22.610Z,5
2023-03-17T06:00:55.857Z,5
2023-03-17T06:03:26.830Z,5.1
2023-03-17T06:05:58.453Z,5.1
2023-03-17T06:08:30.123Z,5.2
2023-03-17T06:11:00.949Z,5.2
2023-03-17T06:13:34.073Z,5.3
2023-03-17T06:16:04.682Z,5.3
2023-03-17T06:18:35.400Z,5.4
2023-03-17T06:21:05.964Z,5.7
2023-03-17T06:23:40.607Z,5.6
2023-03-17T06:26:14.345Z,5.7
2023-03-17T06:28:46.065Z,5.8
2023-03-17T06:31:18.086Z,5.8
2023-03-17T06:33:48.272Z,5.9
2023-03-17T06:36:19.426Z,5.9
2023-03-17T06:38:50.123Z,6
2023-03-17T06:41:20.773Z,5.9
2023-03-17T06:43:52.092Z,5.9
2023-03-17T06:46:21.896Z,6
2023-03-17T06:48:52.315Z,6.2
2023-03-17T06:51:22.797Z,6.2
2023-03-17T06:53:58.597Z,6.3
2023-03-17T06:56:30.430Z,6.2
2023-03-17T06:59:03.497Z,6.2
2023-03-17T07:01:36.102Z,6.3
2023-03-17T07:04:07.027Z,6.4
2023-03-17T07:06:41.350Z,6.4
2023-03-17T07:09:14.066Z,6.6
2023-03-17T07:11:44.461Z,6.7
2023-03-17T07:14:18.637Z,6.7
2023-03-17T07:16:50.100Z,6.7
2023-03-17T07:19:19.145Z,6.8
2023-03-17T07:21:49.637Z,7
2023-03-17T07:24:21.386Z,7
2023-03-17T07:26:52.956Z,6.9
2023-03-17T07:29:24.915Z,7
2023-03-17T07:31:55.394Z,7.2
2023-03-17T07:34:26.094Z,7.1
2023-03-17T07:36:57.097Z,7.2
2023-03-17T07:39:27.587Z,7.2
2023-03-17T07:41:58.009Z,7.3
2023-03-17T07:44:29.575Z,7.3
2023-03-17T07:47:00.025Z,7.3
2023-03-17T07:49:41.516Z,7.4
2023-03-17T07:52:12.389Z,7.5
2023-03-17T07:54:43.223Z,7.6
2023-03-17T07:57:13.118Z,7.7
2023-03-17T07:59:43.685Z,7.6
2023-03-17T08:02:16.065Z,7.7
2023-03-17T08:04:46.657Z,7.8
2023-03-17T08:07:17.225Z,7.8
2023-03-17T08:09:48.192Z,7.9
2023-03-17T08:12:18.595Z,8
2023-03-17T08:14:49.116Z,8.1
2023-03-17T08:17:29.364Z,8.3
2023-03-17T08:19:59.883Z,8.3
2023-03-17T08:22:31.512Z,8.4
2023-03-17T08:25:03.761Z,8.4
2023-03-17T08:27:37.465Z,8.5
2023-03-17T08:30:09.037Z,8.6
2023-03-17T08:32:39.786Z,8.7
2023-03-17T08:35:10.372Z,8.9
2023-03-17T08:37:40.560Z,8.9
2023-03-17T08:40:11.421Z,8.9
2023-03-17T08:42:41.953Z,9
2023-03-17T08:45:12.802Z,9
2023-03-17T08:47:43.442Z,9.1
2023-03-17T08:50:14.435Z,9
2023-03-17T08:52:43.697Z,9.1
2023-03-17T08:55:14.394Z,9.2
2023-03-17T08:57:45.309Z,9.3
2023-03-17T09:00:20.882Z,9.3
2023-03-17T09:02:51.820Z,9.5
2023-03-17T09:05:22.287Z,9.5
2023-03-17T09:07:55.018Z,9.6
2023-03-17T09:10:25.685Z,9.8
2023-03-17T09:12:57.706Z,9.9
2023-03-17T09:15:26.654Z,10
2023-03-17T09:17:56.848Z,10.1
2023-03-17T09:20:27.401Z,10
2023-03-17T09:22:57.984Z,10.1
2023-03-17T09:25:28.706Z,10
2023-03-17T09:27:59.253Z,10.2
2023-03-17T09:30:30.259Z,10.3
2023-03-17T09:33:04.250Z,10.3
2023-03-17T09:35:35.006Z,10.5
2023-03-17T09:38:14.130Z,10.6
2023-03-17T09:40:44.486Z,10.6
2023-03-17T09:43:21.626Z,10.7
2023-03-17T09:45:54.808Z,10.8
2023-03-17T09:48:28.212Z,10.9
2023-03-17T09:51:00.580Z,10.9
2023-03-17T09:53:32.033Z,11
2023-03-17T09:56:02.539Z,11
2023-03-17T09:58:32.707Z,11
2023-03-17T10:01:02.904Z,11.1
2023-03-17T10:03:35.581Z,11.1
2023-03-17T10:06:06.078Z,11.1
2023-03-17T10:08:36.256Z,11.2
2023-03-17T10:11:06.619Z,11.2
2023-03-17T10:13:37.001Z,11.4
2023-03-17T10:16:07.446Z,11.5
2023-03-17T10:18:39.236Z,11.5
2023-03-17T10:21:18.819Z,11.6
2023-03-17T10:23:49.236Z,11.7
2023-03-17T10:26:19.704Z,11.6
2023-03-17T10:28:49.885Z,11.7
2023-03-17T10:31:20.039Z,11.6
2023-03-17T10:33:50.470Z,11.7
2023-03-17T10:36:21.368Z,11.8
2023-03-17T10:38:52.772Z,11.8
2023-03-17T10:41:22.993Z,11.6
2023-03-17T10:43:53.002Z,11.6
2023-03-17T10:46:24.066Z,11.5
2023-03-17T10:48:56.923Z,11.5
2023-03-17T10:51:31.398Z,11.8
2023-03-17T10:54:01.833Z,11.9
2023-03-17T10:56:31.128Z,11.9
2023-03-17T10:59:01.366Z,12.1
2023-03-17T11:01:35.358Z,12.1
2023-03-17T11:04:05.713Z,12.2
2023-03-17T11:06:36.646Z,12.3
2023-03-17T11:09:09.615Z,12.4
2023-03-17T11:11:40.055Z,12.4
2023-03-17T11:14:08.870Z,12.5
2023-03-17T11:16:39.145Z,12.6
2023-03-17T11:19:08.048Z,12.5
2023-03-17T11:21:38.260Z,12.6
2023-03-17T11:24:08.659Z,12.6
2023-03-17T11:26:39.238Z,12.6
2023-03-17T11:29:10.521Z,12.7
2023-03-17T11:31:40.011Z,12.8
2023-03-17T11:34:10.933Z,12.8
2023-03-17T11:36:41.326Z,12.6
2023-03-17T11:39:13.989Z,12.5
2023-03-17T11:41:44.254Z,12.7
2023-03-17T11:44:19.731Z,12.6
2023-03-17T11:46:50.364Z,12.6
2023-03-17T11:49:20.472Z,12.6
2023-03-17T11:51:55.284Z,12.7
2023-03-17T11:54:24.475Z,12.9
2023-03-17T11:56:54.976Z,13
2023-03-17T11:59:25.863Z,13
2023-03-17T12:01:56.187Z,13.1
2023-03-17T12:04:26.476Z,13.2
2023-03-17T12:06:59.555Z,13.1
2023-03-17T12:09:30.760Z,13
2023-03-17T12:12:02.365Z,12.9
2023-03-17T12:14:33.285Z,13
2023-03-17T12:17:06.890Z,13.1
2023-03-17T12:19:38.907Z,13
2023-03-17T12:22:12.314Z,13.1
2023-03-17T12:24:43.760Z,13.2
2023-03-17T12:27:13.954Z,13.2
2023-03-17T12:29:45.650Z,13.4
2023-03-17T12:32:15.657Z,13.4
2023-03-17T12:34:46.125Z,13.4
2023-03-17T12:37:16.087Z,13.3
2023-03-17T12:39:45.397Z,13.4
2023-03-17T12:42:25.207Z,13.5
2023-03-17T12:44:58.405Z,13.7
2023-03-17T12:47:29.392Z,13.8
2023-03-17T12:50:00.700Z,13.8
2023-03-17T12:52:32.035Z,14
2023-03-17T12:55:02.710Z,14.1
2023-03-17T12:57:33.513Z,14.1
2023-03-17T13:00:07.687Z,14.3
2023-03-17T13:02:41.942Z,14.4
2023-03-17T13:05:12.998Z,14.5
2023-03-17T13:07:47.611Z,14.6
2023-03-17T13:10:18.459Z,14.7
2023-03-17T13:12:48.976Z,14.7
2023-03-17T13:15:20.171Z,14.7
2023-03-17T13:17:50.716Z,14.7
2023-03-17T13:20:23.473Z,14.8
2023-03-17T13:22:59.056Z,15
2023-03-17T13:25:29.745Z,15.2
2023-03-17T13:27:59.727Z,15.3
2023-03-17T13:30:33.571Z,15.3
2023-03-17T13:33:09.777Z,15.3
2023-03-17T13:35:45.489Z,15.4
2023-03-17T13:38:17.529Z,15.5
2023-03-17T13:40:54.165Z,15.5
2023-03-17T13:43:24.727Z,15.6
2023-03-17T13:45:56.186Z,15.2
2023-03-17T13:48:26.534Z,15.5
2023-03-17T13:50:59.956Z,15.2
2023-03-17T13:53:30.191Z,15.3
2023-03-17T13:56:01.283Z,15.4
2023-03-17T13:58:31.767Z,15.4
2023-03-17T14:01:02.477Z,15.5
2023-03-17T14:03:33.342Z,15.4
2023-03-17T14:06:07.853Z,15.4
2023-03-17T14:08:40.575Z,15.4
2023-03-17T14:11:11.051Z,15.5
2023-03-17T14:13:41.713Z,15.4
2023-03-17T14:16:15.290Z,15.3
2023-03-17T14:18:46.090Z,15.4
2023-03-17T14:21:16.622Z,15.2
2023-03-17T14:23:50.866Z,15
2023-03-17T14:26:21.842Z,14.9
2023-03-17T14:28:52.363Z,14.6
2023-03-17T14:31:22.221Z,14.2
2023-03-17T14:33:53.080Z,14.1
2023-03-17T14:36:25.817Z,14
2023-03-17T14:38:59.880Z,13.9
2023-03-17T14:41:33.496Z,13.9
2023-03-17T14:44:04.035Z,13.8
2023-03-17T14:46:34.089Z,13.7
2023-03-17T14:49:04.158Z,13.6
2023-03-17T14:51:34.341Z,13.5
2023-03-17T14:54:04.710Z,13.5
2023-03-17T14:56:37.210Z,13.4
2023-03-17T14:59:07.637Z,13.3
2023-03-17T15:01:37.683Z,13.2
2023-03-17T15:04:08.816Z,13.2
2023-03-17T15:06:39.162Z,13.1
2023-03-17T15:09:09.131Z,13
2023-03-17T15:11:39.612Z,13
2023-03-17T15:14:09.857Z,12.9
2023-03-17T15:16:40.336Z,12.8
2023-03-17T15:19:10.561Z,12.8
2023-03-17T15:21:42.266Z,12.6
2023-03-17T15:24:13.812Z,12.7
2023-03-17T15:26:45.398Z,12.6
2023-03-17T15:29:15.548Z,12.6
2023-03-17T15:31:45.888Z,12.6
2023-03-17T15:34:16.812Z,12.5
2023-03-17T15:36:47.161Z,12.4
2023-03-17T15:39:17.755Z,12.5
2023-03-17T15:41:48.265Z,12.3
2023-03-17T15:44:18.959Z,12.4
2023-03-17T15:46:49.165Z,12.4
2023-03-17T15:49:20.253Z,12.5
2023-03-17T15:51:50.428Z,12.3
2023-03-17T15:54:21.510Z,12.1
2023-03-17T15:56:51.983Z,12
2023-03-17T15:59:22.321Z,12
2023-03-17T16:01:53.323Z,12.1
2023-03-17T16:04:24.053Z,12.2
2023-03-17T16:06:57.194Z,12.1
2023-03-17T16:09:27.451Z,12.1
2023-03-17T16:12:10.118Z,12
2023-03-17T16:14:40.417Z,12
2023-03-17T16:17:10.370Z,11.8
2023-03-17T16:19:39.237Z,11.9
2023-03-17T16:22:12.827Z,11.8
2023-03-17T16:24:47.004Z,11.8
2023-03-17T16:27:18.711Z,11.7
2023-03-17T16:29:49.687Z,11.5
2023-03-17T16:32:19.906Z,11.5
2023-03-17T16:34:50.134Z,11.6
2023-03-17T16:37:26.869Z,11.5
2023-03-17T16:39:57.815Z,11.4
2023-03-17T16:42:27.778Z,11.4
2023-03-17T16:44:58.167Z,11.4
2023-03-17T16:47:29.611Z,11.3
2023-03-17T16:49:59.922Z,11.3
2023-03-17T16:52:30.304Z,11.3
2023-03-17T16:55:00.321Z,11.1
2023-03-17T16:57:35.037Z,11
2023-03-17T17:00:06.317Z,11
2023-03-17T17:02:40.022Z,10.9
2023-03-17T17:05:10.169Z,11
2023-03-17T17:07:44.648Z,11
2023-03-17T17:10:14.673Z,10.9
2023-03-17T17:12:45.110Z,11
2023-03-17T17:15:16.512Z,10.9
2023-03-17T17:17:47.982Z,10.8
2023-03-17T17:20:19.023Z,10.8
2023-03-17T17:22:49.085Z,10.9
2023-03-17T17:25:19.673Z,10.9
2023-03-17T17:27:50.172Z,10.8
2023-03-17T17:30:20.464Z,10.7
2023-03-17T17:32:50.627Z,10.8
2023-03-17T17:35:20.597Z,10.6
2023-03-17T17:37:54.583Z,10.6
2023-03-17T17:40:25.103Z,10.4
2023-03-17T17:42:55.349Z,10.5
2023-03-17T17:45:26.164Z,10.7
2023-03-17T17:47:56.979Z,10.6
2023-03-17T17:50:27.571Z,10.4
2023-03-17T17:53:00.784Z,10.4
2023-03-17T17:55:39.109Z,10.4
2023-03-17T17:58:09.241Z,10.4
2023-03-17T18:00:39.761Z,10.4
2023-03-17T18:03:19.636Z,10.4
2023-03-17T18:05:49.920Z,10.3
2023-03-17T18:08:20.178Z,10.2
2023-03-17T18:10:52.067Z,10.3
2023-03-17T18:13:20.785Z,10.2
2023-03-17T18:15:51.055Z,10.2
2023-03-17T18:18:22.351Z,10.1
2023-03-17T18:20:52.647Z,10
2023-03-17T18:23:30.105Z,10
2023-03-17T18:26:01.204Z,10
2023-03-17T18:28:32.112Z,9.9
2023-03-17T18:31:02.706Z,9.9
2023-03-17T18:33:33.278Z,9.8
2023-03-17T18:36:03.656Z,9.9
2023-03-17T18:38:35.972Z,9.8
2023-03-17T18:41:06.802Z,9.7
2023-03-17T18:43:37.276Z,9.6
2023-03-17T18:46:12.288Z,9.6
2023-03-17T18:48:47.641Z,9.6
2023-03-17T18:51:18.524Z,9.6
2023-03-17T18:53:49.856Z,9.5
2023-03-17T18:56:20.462Z,9.5
2023-03-17T18:58:54.542Z,9.4
2023-03-17T19:01:24.835Z,9.4
2023-03-17T19:03:55.050Z,9.3
2023-03-17T19:06:25.365Z,9.3
2023-03-17T19:08:57.531Z,9.1
2023-03-17T19:11:28.366Z,9
2023-03-17T19:13:59.660Z,9
2023-03-17T19:16:30.564Z,9
2023-03-17T19:19:01.921Z,8.9
2023-03-17T19:21:32.679Z,8.9
2023-03-17T19:24:05.143Z,8.8
2023-03-17T19:26:35.392Z,8.8
2023-03-17T19:29:06.738Z,8.8
2023-03-17T19:31:36.873Z,8.7
2023-03-17T19:34:07.592Z,8.7
2023-03-17T19:36:37.348Z,8.6
2023-03-17T19:39:17.857Z,8.5
2023-03-17T19:41:48.009Z,8.4
2023-03-17T19:44:18.344Z,8.4
2023-03-17T19:46:47.297Z,8.3
2023-03-17T19:49:17.195Z,8.3
2023-03-17T19:51:47.716Z,8.1
2023-03-17T19:54:18.139Z,8.1
2023-03-17T19:56:48.456Z,8.1
2023-03-17T19:59:18.837Z,8.1
2023-03-17T20:01:49.163Z,8
2023-03-17T20:04:19.511Z,7.9
2023-03-17T20:06:49.665Z,7.8
2023-03-17T20:09:20.050Z,7.8
2023-03-17T20:11:50.216Z,7.7
2023-03-17T20:14:20.509Z,7.7
2023-03-17T20:16:50.700Z,7.7
2023-03-17T20:19:20.945Z,7.6
2023-03-17T20:21:54.087Z,7.6
2023-03-17T20:24:24.643Z,7.5
2023-03-17T20:26:54.539Z,7.4
2023-03-17T20:29:24.851Z,7.4
2023-03-17T20:31:55.002Z,7.3
2023-03-17T20:34:25.304Z,7.3
2023-03-17T20:36:55.434Z,7.3
2023-03-17T20:39:25.836Z,7.3
2023-03-17T20:41:56.156Z,7.2
2023-03-17T20:44:26.194Z,7.2
2023-03-17T20:46:56.403Z,7.1
2023-03-17T20:49:26.613Z,7.1
2023-03-17T20:51:56.724Z,7.1
2023-03-17T20:54:27.002Z,7
2023-03-17T20:56:57.891Z,6.9
2023-03-17T20:59:28.777Z,6.9
2023-03-17T21:01:59.016Z,6.9
2023-03-17T21:04:29.362Z,6.8
2023-03-17T21:06:59.259Z,6.8
2023-03-17T21:09:29.645Z,6.8
2023-03-17T21:12:00.018Z,6.8
2023-03-17T21:14:30.024Z,6.8
2023-03-17T21:17:00.219Z,6.7
2023-03-17T21:19:31.520Z,6.7
2023-03-17T21:22:01.756Z,6.6
2023-03-17T21:24:32.019Z,6.6
2023-03-17T21:27:02.642Z,6.5
2023-03-17T21:29:32.770Z,6.5
2023-03-17T21:32:02.946Z,6.5
2023-03-17T21:34:33.049Z,6.5
2023-03-17T21:37:03.417Z,6.6
2023-03-17T21:39:33.467Z,6.4
2023-03-17T21:42:03.700Z,6.4
2023-03-17T21:44:34.355Z,6.3
2023-03-17T21:47:04.582Z,6.4
2023-03-17T21:49:35.045Z,6.3
2023-03-17T21:52:05.121Z,6.4
2023-03-17T21:54:35.723Z,6.2
2023-03-17T21:57:06.354Z,6.2
2023-03-17T21:59:36.663Z,6.2
2023-03-17T22:02:10.636Z,6.1
2023-03-17T22:04:40.644Z,6.2
2023-03-17T22:07:11.377Z,6.1
2023-03-17T22:09:42.015Z,6
2023-03-17T22:12:12.938Z,5.9
2023-03-17T22:14:42.785Z,5.9
2023-03-17T22:17:13.456Z,5.9
2023-03-17T22:19:43.588Z,5.8
2023-03-17T22:22:14.614Z,5.7
2023-03-17T22:24:46.587Z,5.8
2023-03-17T22:27:16.994Z,5.7
2023-03-17T22:29:47.928Z,5.7
2023-03-17T22:32:18.340Z,5.6
2023-03-17T22:34:48.785Z,5.6
2023-03-17T22:37:20.476Z,5.5
2023-03-17T22:39:51.907Z,5.5
2023-03-17T22:42:22.251Z,5.6
2023-03-17T22:44:53.008Z,5.5
2023-03-17T22:47:23.841Z,5.5
2023-03-17T22:49:54.187Z,5.4
2023-03-17T22:52:24.122Z,5.5
2023-03-17T22:54:54.438Z,5.5
2023-03-17T22:57:26.532Z,5.5
2023-03-17T22:59:56.714Z,5.3
2023-03-17T23:02:27.774Z,5.2
2023-03-17T23:04:58.530Z,5.3
2023-03-17T23:07:29.254Z,5.2
2023-03-17T23:10:00.134Z,5.2
2023-03-17T23:12:30.593Z,5.2
2023-03-17T23:15:01.656Z,5.1
2023-03-17T23:17:32.059Z,5.1
2023-03-17T23:20:02.506Z,5
2023-03-17T23:22:33.371Z,5
2023-03-17T23:25:03.766Z,5
2023-03-17T23:27:34.750Z,5
2023-03-17T23:30:04.678Z,4.9
2023-03-17T23:32:35.076Z,5
2023-03-17T23:35:05.616Z,5.1
2023-03-17T23:37:37.189Z,5
2023-03-17T23:40:08.228Z,5
2023-03-17T23:42:38.908Z,5
2023-03-17T23:45:09.541Z,4.9
2023-03-17T23:47:39.999Z,5
2023-03-17T23:50:10.835Z,5
2023-03-17T23:52:39.679Z,4.9
2023-03-17T23:55:09.901Z,4.9
2023-03-17T23:57:40.328Z,4.8
